sensor_id;sensor_type;location;lat;lon;timestamp;P1;durP1;ratioP1;P2;durP2;ratioP2
8232;SDS011;4157;48.074;9.952;2022-11-15T00:00:53;8.88;;;5.40;;
8232;SDS011;4157;48.074;9.952;2022-11-15T00:03:40;9.45;;;5.85;;
8232;SDS011;4157;48.074;9.952;2022-11-15T00:06:26;7.90;;;5.55;;
8232;SDS011;4157;48.074;9.952;2022-11-15T00:09:12;9.18;;;5.38;;
8232;SDS011;4157;48.074;9.952;2022-11-15T00:11:59;8.80;;;5.35;;
8232;SDS011;4157;48.074;9.952;2022-11-15T00:14:46;7.63;;;5.60;;
8232;SDS011;4157;48.074;9.952;2022-11-15T00:17:32;8.23;;;6.03;;
8232;SDS011;4157;48.074;9.952;2022-11-15T00:20:18;8.35;;;5.60;;
8232;SDS011;4157;48.074;9.952;2022-11-15T00:23:06;11.20;;;5.55;;
8232;SDS011;4157;48.074;9.952;2022-11-15T00:25:55;7.72;;;5.30;;
8232;SDS011;4157;48.074;9.952;2022-11-15T00:28:43;8.82;;;6.13;;
8232;SDS011;4157;48.074;9.952;2022-11-15T00:31:29;7.78;;;5.47;;
8232;SDS011;4157;48.074;9.952;2022-11-15T00:34:16;12.23;;;6.18;;
8232;SDS011;4157;48.074;9.952;2022-11-15T00:37:02;7.45;;;5.32;;
8232;SDS011;4157;48.074;9.952;2022-11-15T00:39:48;7.65;;;5.32;;
8232;SDS011;4157;48.074;9.952;2022-11-15T00:42:34;8.40;;;5.72;;
8232;SDS011;4157;48.074;9.952;2022-11-15T00:45:22;8.05;;;5.20;;
8232;SDS011;4157;48.074;9.952;2022-11-15T00:48:09;9.63;;;5.00;;
8232;SDS011;4157;48.074;9.952;2022-11-15T00:50:55;7.18;;;4.93;;
8232;SDS011;4157;48.074;9.952;2022-11-15T00:53:41;8.07;;;5.20;;
8232;SDS011;4157;48.074;9.952;2022-11-15T00:56:28;7.40;;;5.50;;
8232;SDS011;4157;48.074;9.952;2022-11-15T00:59:14;8.60;;;5.90;;
8232;SDS011;4157;48.074;9.952;2022-11-15T01:02:02;9.30;;;6.38;;
8232;SDS011;4157;48.074;9.952;2022-11-15T01:04:48;9.05;;;6.07;;
8232;SDS011;4157;48.074;9.952;2022-11-15T01:07:34;8.80;;;5.70;;
8232;SDS011;4157;48.074;9.952;2022-11-15T01:10:21;9.25;;;5.80;;
8232;SDS011;4157;48.074;9.952;2022-11-15T01:13:07;10.45;;;4.97;;
8232;SDS011;4157;48.074;9.952;2022-11-15T01:15:53;7.43;;;4.90;;
8232;SDS011;4157;48.074;9.952;2022-11-15T01:18:41;6.85;;;4.85;;
8232;SDS011;4157;48.074;9.952;2022-11-15T01:21:27;6.60;;;4.70;;
8232;SDS011;4157;48.074;9.952;2022-11-15T01:24:13;7.68;;;4.60;;
8232;SDS011;4157;48.074;9.952;2022-11-15T01:27:00;7.85;;;4.03;;
8232;SDS011;4157;48.074;9.952;2022-11-15T01:29:46;7.35;;;4.53;;
8232;SDS011;4157;48.074;9.952;2022-11-15T01:32:33;7.28;;;4.60;;
8232;SDS011;4157;48.074;9.952;2022-11-15T01:35:20;6.90;;;3.90;;
8232;SDS011;4157;48.074;9.952;2022-11-15T01:38:07;6.95;;;4.28;;
8232;SDS011;4157;48.074;9.952;2022-11-15T01:40:53;7.15;;;4.25;;
8232;SDS011;4157;48.074;9.952;2022-11-15T01:43:39;6.35;;;4.13;;
8232;SDS011;4157;48.074;9.952;2022-11-15T01:46:27;5.70;;;3.97;;
8232;SDS011;4157;48.074;9.952;2022-11-15T01:49:15;6.32;;;4.13;;
8232;SDS011;4157;48.074;9.952;2022-11-15T01:52:03;6.60;;;3.70;;
8232;SDS011;4157;48.074;9.952;2022-11-15T01:54:50;5.72;;;3.95;;
8232;SDS011;4157;48.074;9.952;2022-11-15T01:57:37;6.13;;;3.70;;
8232;SDS011;4157;48.074;9.952;2022-11-15T02:00:24;7.07;;;3.95;;
8232;SDS011;4157;48.074;9.952;2022-11-15T02:03:10;6.88;;;3.65;;
8232;SDS011;4157;48.074;9.952;2022-11-15T02:05:56;5.15;;;3.25;;
8232;SDS011;4157;48.074;9.952;2022-11-15T02:08:45;5.90;;;3.28;;
8232;SDS011;4157;48.074;9.952;2022-11-15T02:11:31;6.57;;;3.40;;
8232;SDS011;4157;48.074;9.952;2022-11-15T02:14:18;7.57;;;3.33;;
8232;SDS011;4157;48.074;9.952;2022-11-15T02:17:10;5.45;;;2.95;;
8232;SDS011;4157;48.074;9.952;2022-11-15T02:20:18;5.22;;;3.22;;
8232;SDS011;4157;48.074;9.952;2022-11-15T02:23:13;5.05;;;2.90;;
8232;SDS011;4157;48.074;9.952;2022-11-15T02:26:07;5.72;;;3.03;;
8232;SDS011;4157;48.074;9.952;2022-11-15T02:28:58;4.90;;;3.15;;
8232;SDS011;4157;48.074;9.952;2022-11-15T02:31:49;5.15;;;3.17;;
8232;SDS011;4157;48.074;9.952;2022-11-15T02:34:39;6.25;;;3.22;;
8232;SDS011;4157;48.074;9.952;2022-11-15T02:37:31;5.05;;;2.90;;
8232;SDS011;4157;48.074;9.952;2022-11-15T02:40:23;11.07;;;4.55;;
8232;SDS011;4157;48.074;9.952;2022-11-15T02:43:14;8.70;;;3.60;;
8232;SDS011;4157;48.074;9.952;2022-11-15T02:46:22;8.52;;;4.47;;
8232;SDS011;4157;48.074;9.952;2022-11-15T02:49:33;9.93;;;5.10;;
8232;SDS011;4157;48.074;9.952;2022-11-15T02:52:21;5.72;;;3.53;;
8232;SDS011;4157;48.074;9.952;2022-11-15T02:58:16;6.40;;;3.90;;
8232;SDS011;4157;48.074;9.952;2022-11-15T03:01:06;5.32;;;3.40;;
8232;SDS011;4157;48.074;9.952;2022-11-15T03:03:59;5.80;;;3.17;;
8232;SDS011;4157;48.074;9.952;2022-11-15T03:06:48;5.47;;;3.05;;
8232;SDS011;4157;48.074;9.952;2022-11-15T03:09:38;5.68;;;2.70;;
8232;SDS011;4157;48.074;9.952;2022-11-15T03:12:27;4.20;;;2.45;;
8232;SDS011;4157;48.074;9.952;2022-11-15T03:15:16;5.40;;;2.75;;
8232;SDS011;4157;48.074;9.952;2022-11-15T03:18:06;4.55;;;2.20;;
8232;SDS011;4157;48.074;9.952;2022-11-15T03:20:55;4.25;;;2.40;;
8232;SDS011;4157;48.074;9.952;2022-11-15T03:23:43;4.45;;;2.40;;
8232;SDS011;4157;48.074;9.952;2022-11-15T03:26:30;4.47;;;2.60;;
8232;SDS011;4157;48.074;9.952;2022-11-15T03:29:18;4.00;;;2.50;;
8232;SDS011;4157;48.074;9.952;2022-11-15T03:32:06;4.80;;;2.65;;
8232;SDS011;4157;48.074;9.952;2022-11-15T03:34:56;5.22;;;2.53;;
8232;SDS011;4157;48.074;9.952;2022-11-15T03:37:44;5.35;;;2.28;;
8232;SDS011;4157;48.074;9.952;2022-11-15T03:40:36;5.40;;;2.47;;
8232;SDS011;4157;48.074;9.952;2022-11-15T03:43:24;5.88;;;2.70;;
8232;SDS011;4157;48.074;9.952;2022-11-15T03:46:16;6.32;;;3.30;;
8232;SDS011;4157;48.074;9.952;2022-11-15T03:49:04;5.35;;;2.80;;
8232;SDS011;4157;48.074;9.952;2022-11-15T03:51:51;4.85;;;2.53;;
8232;SDS011;4157;48.074;9.952;2022-11-15T03:54:47;5.13;;;3.15;;
8232;SDS011;4157;48.074;9.952;2022-11-15T03:57:35;6.47;;;3.50;;
8232;SDS011;4157;48.074;9.952;2022-11-15T04:00:21;7.53;;;4.50;;
8232;SDS011;4157;48.074;9.952;2022-11-15T04:03:07;9.02;;;5.47;;
8232;SDS011;4157;48.074;9.952;2022-11-15T04:05:53;9.48;;;6.20;;
8232;SDS011;4157;48.074;9.952;2022-11-15T04:08:39;12.48;;;7.15;;
8232;SDS011;4157;48.074;9.952;2022-11-15T04:11:26;8.93;;;6.30;;
8232;SDS011;4157;48.074;9.952;2022-11-15T04:14:13;8.75;;;4.88;;
8232;SDS011;4157;48.074;9.952;2022-11-15T04:16:59;7.68;;;4.28;;
8232;SDS011;4157;48.074;9.952;2022-11-15T04:19:46;8.27;;;4.95;;
8232;SDS011;4157;48.074;9.952;2022-11-15T04:22:51;7.45;;;4.25;;
8232;SDS011;4157;48.074;9.952;2022-11-15T04:25:56;6.93;;;4.53;;
8232;SDS011;4157;48.074;9.952;2022-11-15T04:28:44;6.57;;;3.42;;
8232;SDS011;4157;48.074;9.952;2022-11-15T04:31:45;5.55;;;3.35;;
8232;SDS011;4157;48.074;9.952;2022-11-15T04:34:32;4.63;;;2.88;;
8232;SDS011;4157;48.074;9.952;2022-11-15T04:37:19;4.60;;;2.80;;
8232;SDS011;4157;48.074;9.952;2022-11-15T04:40:06;5.90;;;3.50;;
8232;SDS011;4157;48.074;9.952;2022-11-15T04:42:52;6.20;;;4.07;;
8232;SDS011;4157;48.074;9.952;2022-11-15T04:45:38;5.85;;;3.80;;
8232;SDS011;4157;48.074;9.952;2022-11-15T04:48:26;4.75;;;3.00;;
8232;SDS011;4157;48.074;9.952;2022-11-15T04:51:12;4.65;;;2.88;;
8232;SDS011;4157;48.074;9.952;2022-11-15T04:53:59;7.32;;;4.30;;
8232;SDS011;4157;48.074;9.952;2022-11-15T04:56:45;9.60;;;4.82;;
8232;SDS011;4157;48.074;9.952;2022-11-15T04:59:31;6.13;;;3.70;;
8232;SDS011;4157;48.074;9.952;2022-11-15T05:02:17;6.38;;;3.08;;
8232;SDS011;4157;48.074;9.952;2022-11-15T05:05:05;4.63;;;3.30;;
8232;SDS011;4157;48.074;9.952;2022-11-15T05:07:50;5.40;;;3.22;;
8232;SDS011;4157;48.074;9.952;2022-11-15T05:10:37;5.57;;;3.10;;
8232;SDS011;4157;48.074;9.952;2022-11-15T05:13:23;4.43;;;3.10;;
8232;SDS011;4157;48.074;9.952;2022-11-15T05:16:09;4.38;;;2.90;;
8232;SDS011;4157;48.074;9.952;2022-11-15T05:18:56;5.47;;;3.15;;
8232;SDS011;4157;48.074;9.952;2022-11-15T05:21:44;4.90;;;3.08;;
8232;SDS011;4157;48.074;9.952;2022-11-15T05:24:30;6.28;;;3.50;;
8232;SDS011;4157;48.074;9.952;2022-11-15T05:27:16;4.13;;;2.80;;
8232;SDS011;4157;48.074;9.952;2022-11-15T05:30:03;5.20;;;3.03;;
8232;SDS011;4157;48.074;9.952;2022-11-15T05:32:49;5.88;;;3.38;;
8232;SDS011;4157;48.074;9.952;2022-11-15T05:35:37;8.50;;;5.25;;
8232;SDS011;4157;48.074;9.952;2022-11-15T05:38:26;6.30;;;4.55;;
8232;SDS011;4157;48.074;9.952;2022-11-15T05:41:12;6.20;;;4.40;;
8232;SDS011;4157;48.074;9.952;2022-11-15T05:43:59;5.82;;;3.92;;
8232;SDS011;4157;48.074;9.952;2022-11-15T05:46:45;6.28;;;3.78;;
8232;SDS011;4157;48.074;9.952;2022-11-15T05:49:33;6.55;;;4.32;;
8232;SDS011;4157;48.074;9.952;2022-11-15T05:52:22;6.10;;;4.43;;
8232;SDS011;4157;48.074;9.952;2022-11-15T05:55:11;6.78;;;4.72;;
8232;SDS011;4157;48.074;9.952;2022-11-15T05:57:57;9.05;;;5.60;;
8232;SDS011;4157;48.074;9.952;2022-11-15T06:00:43;8.30;;;5.63;;
8232;SDS011;4157;48.074;9.952;2022-11-15T06:03:30;7.20;;;5.45;;
8232;SDS011;4157;48.074;9.952;2022-11-15T06:06:16;13.43;;;6.30;;
8232;SDS011;4157;48.074;9.952;2022-11-15T06:09:02;8.95;;;6.32;;
8232;SDS011;4157;48.074;9.952;2022-11-15T06:11:50;8.25;;;7.00;;
8232;SDS011;4157;48.074;9.952;2022-11-15T06:14:36;13.60;;;8.05;;
8232;SDS011;4157;48.074;9.952;2022-11-15T06:17:22;9.93;;;6.47;;
8232;SDS011;4157;48.074;9.952;2022-11-15T06:20:10;11.88;;;8.85;;
8232;SDS011;4157;48.074;9.952;2022-11-15T06:22:56;18.67;;;14.23;;
8232;SDS011;4157;48.074;9.952;2022-11-15T06:25:43;12.93;;;10.02;;
8232;SDS011;4157;48.074;9.952;2022-11-15T06:28:31;10.82;;;8.02;;
8232;SDS011;4157;48.074;9.952;2022-11-15T06:31:17;11.23;;;7.88;;
8232;SDS011;4157;48.074;9.952;2022-11-15T06:34:04;11.68;;;8.65;;
8232;SDS011;4157;48.074;9.952;2022-11-15T06:36:50;12.57;;;9.15;;
8232;SDS011;4157;48.074;9.952;2022-11-15T06:39:37;15.43;;;10.52;;
8232;SDS011;4157;48.074;9.952;2022-11-15T06:42:23;13.52;;;10.10;;
8232;SDS011;4157;48.074;9.952;2022-11-15T06:45:11;13.23;;;10.30;;
8232;SDS011;4157;48.074;9.952;2022-11-15T06:47:57;11.82;;;8.23;;
8232;SDS011;4157;48.074;9.952;2022-11-15T06:50:49;12.18;;;9.57;;
8232;SDS011;4157;48.074;9.952;2022-11-15T06:53:35;14.23;;;9.48;;
8232;SDS011;4157;48.074;9.952;2022-11-15T06:56:22;12.05;;;9.80;;
8232;SDS011;4157;48.074;9.952;2022-11-15T06:59:08;11.88;;;9.32;;
8232;SDS011;4157;48.074;9.952;2022-11-15T07:01:56;11.90;;;9.15;;
8232;SDS011;4157;48.074;9.952;2022-11-15T07:04:42;10.63;;;8.07;;
8232;SDS011;4157;48.074;9.952;2022-11-15T07:07:28;9.55;;;7.07;;
8232;SDS011;4157;48.074;9.952;2022-11-15T07:10:14;9.32;;;6.28;;
8232;SDS011;4157;48.074;9.952;2022-11-15T07:13:01;9.48;;;6.38;;
8232;SDS011;4157;48.074;9.952;2022-11-15T07:15:47;8.50;;;5.20;;
8232;SDS011;4157;48.074;9.952;2022-11-15T07:18:35;6.70;;;4.28;;
8232;SDS011;4157;48.074;9.952;2022-11-15T07:21:21;7.93;;;4.95;;
8232;SDS011;4157;48.074;9.952;2022-11-15T07:24:07;7.75;;;4.70;;
8232;SDS011;4157;48.074;9.952;2022-11-15T07:26:54;8.77;;;6.10;;
8232;SDS011;4157;48.074;9.952;2022-11-15T07:29:40;8.93;;;5.93;;
8232;SDS011;4157;48.074;9.952;2022-11-15T07:32:26;8.20;;;5.50;;
8232;SDS011;4157;48.074;9.952;2022-11-15T07:35:14;8.52;;;5.85;;
8232;SDS011;4157;48.074;9.952;2022-11-15T07:38:01;9.07;;;6.45;;
8232;SDS011;4157;48.074;9.952;2022-11-15T07:40:55;9.10;;;6.00;;
8232;SDS011;4157;48.074;9.952;2022-11-15T07:43:41;12.18;;;6.60;;
8232;SDS011;4157;48.074;9.952;2022-11-15T07:46:27;15.45;;;7.60;;
8232;SDS011;4157;48.074;9.952;2022-11-15T07:49:14;14.10;;;6.63;;
8232;SDS011;4157;48.074;9.952;2022-11-15T07:52:01;12.50;;;6.78;;
8232;SDS011;4157;48.074;9.952;2022-11-15T07:54:47;16.67;;;6.90;;
8232;SDS011;4157;48.074;9.952;2022-11-15T07:57:34;12.85;;;6.65;;
8232;SDS011;4157;48.074;9.952;2022-11-15T08:00:20;16.27;;;7.35;;
8232;SDS011;4157;48.074;9.952;2022-11-15T08:03:07;12.85;;;7.75;;
8232;SDS011;4157;48.074;9.952;2022-11-15T08:05:53;12.90;;;8.35;;
8232;SDS011;4157;48.074;9.952;2022-11-15T08:08:41;16.17;;;8.50;;
8232;SDS011;4157;48.074;9.952;2022-11-15T08:11:27;12.73;;;7.63;;
8232;SDS011;4157;48.074;9.952;2022-11-15T08:14:13;11.23;;;8.10;;
8232;SDS011;4157;48.074;9.952;2022-11-15T08:17:00;13.52;;;8.50;;
8232;SDS011;4157;48.074;9.952;2022-11-15T08:19:46;13.88;;;8.90;;
8232;SDS011;4157;48.074;9.952;2022-11-15T08:22:33;12.57;;;9.15;;
8232;SDS011;4157;48.074;9.952;2022-11-15T08:25:20;13.40;;;7.85;;
8232;SDS011;4157;48.074;9.952;2022-11-15T08:28:07;10.70;;;7.57;;
8232;SDS011;4157;48.074;9.952;2022-11-15T08:30:54;11.48;;;6.63;;
8232;SDS011;4157;48.074;9.952;2022-11-15T08:33:40;10.95;;;6.80;;
8232;SDS011;4157;48.074;9.952;2022-11-15T08:36:27;11.95;;;6.50;;
8232;SDS011;4157;48.074;9.952;2022-11-15T08:39:13;11.18;;;5.45;;
8232;SDS011;4157;48.074;9.952;2022-11-15T08:42:01;10.25;;;6.53;;
8232;SDS011;4157;48.074;9.952;2022-11-15T08:44:48;9.55;;;6.40;;
8232;SDS011;4157;48.074;9.952;2022-11-15T08:47:34;9.00;;;5.05;;
8232;SDS011;4157;48.074;9.952;2022-11-15T08:50:21;9.40;;;5.07;;
8232;SDS011;4157;48.074;9.952;2022-11-15T08:53:08;12.20;;;4.38;;
8232;SDS011;4157;48.074;9.952;2022-11-15T08:55:54;5.45;;;3.40;;
8232;SDS011;4157;48.074;9.952;2022-11-15T08:58:41;6.95;;;4.13;;
8232;SDS011;4157;48.074;9.952;2022-11-15T09:01:28;6.70;;;4.18;;
8232;SDS011;4157;48.074;9.952;2022-11-15T09:04:16;5.80;;;3.67;;
8232;SDS011;4157;48.074;9.952;2022-11-15T09:07:03;6.43;;;3.42;;
8232;SDS011;4157;48.074;9.952;2022-11-15T09:09:49;5.97;;;3.17;;
8232;SDS011;4157;48.074;9.952;2022-11-15T09:12:36;4.60;;;2.80;;
8232;SDS011;4157;48.074;9.952;2022-11-15T09:15:23;6.80;;;2.80;;
8232;SDS011;4157;48.074;9.952;2022-11-15T09:18:09;6.22;;;3.50;;
8232;SDS011;4157;48.074;9.952;2022-11-15T09:20:56;8.93;;;3.17;;
8232;SDS011;4157;48.074;9.952;2022-11-15T09:23:42;9.05;;;3.83;;
8232;SDS011;4157;48.074;9.952;2022-11-15T09:26:29;9.20;;;4.57;;
8232;SDS011;4157;48.074;9.952;2022-11-15T09:29:15;7.45;;;4.20;;
8232;SDS011;4157;48.074;9.952;2022-11-15T09:32:03;5.55;;;3.75;;
8232;SDS011;4157;48.074;9.952;2022-11-15T09:34:50;6.30;;;3.67;;
8232;SDS011;4157;48.074;9.952;2022-11-15T09:37:36;6.25;;;3.25;;
8232;SDS011;4157;48.074;9.952;2022-11-15T09:40:22;7.35;;;3.97;;
8232;SDS011;4157;48.074;9.952;2022-11-15T09:43:18;9.00;;;3.97;;
8232;SDS011;4157;48.074;9.952;2022-11-15T09:46:10;5.57;;;3.72;;
8232;SDS011;4157;48.074;9.952;2022-11-15T09:49:00;6.97;;;4.28;;
8232;SDS011;4157;48.074;9.952;2022-11-15T09:51:52;7.13;;;4.15;;
8232;SDS011;4157;48.074;9.952;2022-11-15T09:54:26;6.47;;;4.05;;
8232;SDS011;4157;48.074;9.952;2022-11-15T09:59:25;6.38;;;4.28;;
8232;SDS011;4157;48.074;9.952;2022-11-15T10:01:56;7.90;;;4.57;;
8232;SDS011;4157;48.074;9.952;2022-11-15T10:04:28;7.25;;;4.45;;
8232;SDS011;4157;48.074;9.952;2022-11-15T10:06:58;6.53;;;4.50;;
8232;SDS011;4157;48.074;9.952;2022-11-15T10:09:31;6.33;;;4.43;;
8232;SDS011;4157;48.074;9.952;2022-11-15T10:12:01;6.45;;;4.38;;
8232;SDS011;4157;48.074;9.952;2022-11-15T10:14:28;8.57;;;4.50;;
8232;SDS011;4157;48.074;9.952;2022-11-15T10:17:01;6.38;;;4.38;;
8232;SDS011;4157;48.074;9.952;2022-11-15T10:19:33;8.00;;;4.00;;
8232;SDS011;4157;48.074;9.952;2022-11-15T10:22:05;6.28;;;3.90;;
8232;SDS011;4157;48.074;9.952;2022-11-15T10:24:39;7.68;;;4.30;;
8232;SDS011;4157;48.074;9.952;2022-11-15T10:27:08;5.10;;;3.35;;
8232;SDS011;4157;48.074;9.952;2022-11-15T10:29:40;6.40;;;3.92;;
8232;SDS011;4157;48.074;9.952;2022-11-15T10:32:10;5.63;;;3.60;;
8232;SDS011;4157;48.074;9.952;2022-11-15T10:34:40;5.93;;;3.45;;
8232;SDS011;4157;48.074;9.952;2022-11-15T10:37:08;5.45;;;3.28;;
8232;SDS011;4157;48.074;9.952;2022-11-15T10:39:35;7.88;;;3.08;;
8232;SDS011;4157;48.074;9.952;2022-11-15T10:44:52;6.10;;;3.50;;
8232;SDS011;4157;48.074;9.952;2022-11-15T10:47:21;5.30;;;3.70;;
8232;SDS011;4157;48.074;9.952;2022-11-15T10:49:55;6.15;;;3.70;;
8232;SDS011;4157;48.074;9.952;2022-11-15T10:52:23;5.30;;;3.33;;
8232;SDS011;4157;48.074;9.952;2022-11-15T10:54:52;7.40;;;4.05;;
8232;SDS011;4157;48.074;9.952;2022-11-15T10:57:22;5.63;;;3.35;;
8232;SDS011;4157;48.074;9.952;2022-11-15T10:59:51;5.50;;;3.53;;
8232;SDS011;4157;48.074;9.952;2022-11-15T11:02:30;5.53;;;3.53;;
8232;SDS011;4157;48.074;9.952;2022-11-15T11:05:00;5.93;;;3.45;;
8232;SDS011;4157;48.074;9.952;2022-11-15T11:07:29;5.72;;;3.42;;
8232;SDS011;4157;48.074;9.952;2022-11-15T11:09:58;5.43;;;3.17;;
8232;SDS011;4157;48.074;9.952;2022-11-15T11:12:27;4.72;;;3.17;;
8232;SDS011;4157;48.074;9.952;2022-11-15T11:14:55;6.03;;;3.28;;
8232;SDS011;4157;48.074;9.952;2022-11-15T11:17:26;6.72;;;3.38;;
8232;SDS011;4157;48.074;9.952;2022-11-15T11:20:00;6.70;;;3.63;;
8232;SDS011;4157;48.074;9.952;2022-11-15T11:22:32;6.90;;;3.80;;
8232;SDS011;4157;48.074;9.952;2022-11-15T11:25:10;8.85;;;4.25;;
8232;SDS011;4157;48.074;9.952;2022-11-15T11:27:42;9.80;;;4.25;;
8232;SDS011;4157;48.074;9.952;2022-11-15T11:30:14;6.93;;;3.78;;
8232;SDS011;4157;48.074;9.952;2022-11-15T11:35:28;7.65;;;4.28;;
8232;SDS011;4157;48.074;9.952;2022-11-15T11:38:01;6.25;;;3.67;;
8232;SDS011;4157;48.074;9.952;2022-11-15T11:40:30;8.98;;;4.15;;
8232;SDS011;4157;48.074;9.952;2022-11-15T11:43:00;7.57;;;4.07;;
8232;SDS011;4157;48.074;9.952;2022-11-15T11:48:20;6.75;;;4.00;;
8232;SDS011;4157;48.074;9.952;2022-11-15T11:50:52;5.78;;;3.50;;
8232;SDS011;4157;48.074;9.952;2022-11-15T11:53:22;5.90;;;3.15;;
8232;SDS011;4157;48.074;9.952;2022-11-15T11:55:52;7.15;;;3.65;;
8232;SDS011;4157;48.074;9.952;2022-11-15T11:58:21;10.02;;;3.67;;
8232;SDS011;4157;48.074;9.952;2022-11-15T12:00:53;7.25;;;4.30;;
8232;SDS011;4157;48.074;9.952;2022-11-15T12:03:24;10.98;;;4.22;;
8232;SDS011;4157;48.074;9.952;2022-11-15T12:05:54;7.53;;;4.10;;
8232;SDS011;4157;48.074;9.952;2022-11-15T12:08:27;9.68;;;3.95;;
8232;SDS011;4157;48.074;9.952;2022-11-15T12:10:58;7.82;;;4.03;;
8232;SDS011;4157;48.074;9.952;2022-11-15T12:13:28;11.10;;;4.82;;
8232;SDS011;4157;48.074;9.952;2022-11-15T12:16:00;6.82;;;3.95;;
8232;SDS011;4157;48.074;9.952;2022-11-15T12:18:30;7.32;;;4.40;;
8232;SDS011;4157;48.074;9.952;2022-11-15T12:21:01;10.05;;;4.43;;
8232;SDS011;4157;48.074;9.952;2022-11-15T12:23:31;10.90;;;4.75;;
8232;SDS011;4157;48.074;9.952;2022-11-15T12:26:00;7.28;;;4.28;;
8232;SDS011;4157;48.074;9.952;2022-11-15T12:28:31;7.55;;;4.75;;
8232;SDS011;4157;48.074;9.952;2022-11-15T12:31:03;10.88;;;5.40;;
8232;SDS011;4157;48.074;9.952;2022-11-15T12:33:34;8.45;;;4.90;;
8232;SDS011;4157;48.074;9.952;2022-11-15T12:36:04;8.73;;;4.80;;
8232;SDS011;4157;48.074;9.952;2022-11-15T12:38:53;8.15;;;4.63;;
8232;SDS011;4157;48.074;9.952;2022-11-15T12:41:21;9.38;;;5.00;;
8232;SDS011;4157;48.074;9.952;2022-11-15T12:43:50;9.82;;;4.90;;
8232;SDS011;4157;48.074;9.952;2022-11-15T12:46:22;11.90;;;5.50;;
8232;SDS011;4157;48.074;9.952;2022-11-15T12:48:55;9.70;;;4.70;;
8232;SDS011;4157;48.074;9.952;2022-11-15T13:02:29;9.50;;;5.45;;
8232;SDS011;4157;48.074;9.952;2022-11-15T13:07:54;10.77;;;5.20;;
8232;SDS011;4157;48.074;9.952;2022-11-15T13:10:30;9.00;;;4.95;;
8232;SDS011;4157;48.074;9.952;2022-11-15T13:12:58;8.73;;;4.80;;
8232;SDS011;4157;48.074;9.952;2022-11-15T13:21:22;7.90;;;4.43;;
8232;SDS011;4157;48.074;9.952;2022-11-15T13:24:16;7.82;;;5.30;;
8232;SDS011;4157;48.074;9.952;2022-11-15T13:26:44;10.75;;;4.95;;
8232;SDS011;4157;48.074;9.952;2022-11-15T13:29:16;8.23;;;5.13;;
8232;SDS011;4157;48.074;9.952;2022-11-15T13:31:44;7.15;;;5.05;;
8232;SDS011;4157;48.074;9.952;2022-11-15T13:34:17;9.15;;;5.72;;
8232;SDS011;4157;48.074;9.952;2022-11-15T13:36:49;9.68;;;6.78;;
8232;SDS011;4157;48.074;9.952;2022-11-15T13:39:25;12.38;;;9.43;;
8232;SDS011;4157;48.074;9.952;2022-11-15T13:41:53;10.32;;;6.75;;
8232;SDS011;4157;48.074;9.952;2022-11-15T13:44:21;8.15;;;6.07;;
8232;SDS011;4157;48.074;9.952;2022-11-15T13:46:59;20.73;;;14.00;;
8232;SDS011;4157;48.074;9.952;2022-11-15T13:49:28;17.33;;;11.43;;
8232;SDS011;4157;48.074;9.952;2022-11-15T13:51:58;10.57;;;7.30;;
8232;SDS011;4157;48.074;9.952;2022-11-15T13:54:27;13.25;;;9.98;;
8232;SDS011;4157;48.074;9.952;2022-11-15T13:56:57;10.30;;;7.72;;
8232;SDS011;4157;48.074;9.952;2022-11-15T13:59:25;9.32;;;5.70;;
8232;SDS011;4157;48.074;9.952;2022-11-15T14:01:54;6.32;;;4.80;;
8232;SDS011;4157;48.074;9.952;2022-11-15T14:04:22;7.55;;;4.88;;
8232;SDS011;4157;48.074;9.952;2022-11-15T14:06:51;7.15;;;4.40;;
8232;SDS011;4157;48.074;9.952;2022-11-15T14:09:31;8.57;;;4.85;;
8232;SDS011;4157;48.074;9.952;2022-11-15T14:12:00;7.63;;;5.13;;
8232;SDS011;4157;48.074;9.952;2022-11-15T14:14:28;8.10;;;5.45;;
8232;SDS011;4157;48.074;9.952;2022-11-15T14:16:57;7.80;;;5.00;;
8232;SDS011;4157;48.074;9.952;2022-11-15T14:19:35;6.97;;;4.88;;
8232;SDS011;4157;48.074;9.952;2022-11-15T14:22:12;6.50;;;4.20;;
8232;SDS011;4157;48.074;9.952;2022-11-15T14:24:42;8.30;;;4.72;;
8232;SDS011;4157;48.074;9.952;2022-11-15T14:27:17;8.18;;;4.80;;
8232;SDS011;4157;48.074;9.952;2022-11-15T14:29:44;7.00;;;5.18;;
8232;SDS011;4157;48.074;9.952;2022-11-15T14:32:13;8.68;;;5.10;;
8232;SDS011;4157;48.074;9.952;2022-11-15T14:34:42;8.15;;;5.03;;
8232;SDS011;4157;48.074;9.952;2022-11-15T14:37:16;8.15;;;4.93;;
8232;SDS011;4157;48.074;9.952;2022-11-15T14:39:47;7.90;;;4.60;;
8232;SDS011;4157;48.074;9.952;2022-11-15T14:42:14;7.28;;;4.88;;
8232;SDS011;4157;48.074;9.952;2022-11-15T14:44:42;8.50;;;4.30;;
8232;SDS011;4157;48.074;9.952;2022-11-15T14:47:10;6.95;;;4.43;;
8232;SDS011;4157;48.074;9.952;2022-11-15T14:49:38;7.53;;;4.20;;
8232;SDS011;4157;48.074;9.952;2022-11-15T14:52:18;8.90;;;4.68;;
8232;SDS011;4157;48.074;9.952;2022-11-15T14:54:49;8.57;;;4.80;;
8232;SDS011;4157;48.074;9.952;2022-11-15T14:57:17;9.27;;;5.22;;
8232;SDS011;4157;48.074;9.952;2022-11-15T14:59:45;10.25;;;5.80;;
8232;SDS011;4157;48.074;9.952;2022-11-15T15:02:14;8.45;;;4.90;;
8232;SDS011;4157;48.074;9.952;2022-11-15T15:04:43;11.13;;;4.45;;
8232;SDS011;4157;48.074;9.952;2022-11-15T15:07:11;7.72;;;4.68;;
8232;SDS011;4157;48.074;9.952;2022-11-15T15:09:39;10.23;;;4.55;;
8232;SDS011;4157;48.074;9.952;2022-11-15T15:12:12;16.40;;;5.20;;
8232;SDS011;4157;48.074;9.952;2022-11-15T15:14:41;8.40;;;4.00;;
8232;SDS011;4157;48.074;9.952;2022-11-15T15:17:08;8.95;;;5.93;;
8232;SDS011;4157;48.074;9.952;2022-11-15T15:19:36;12.07;;;6.55;;
8232;SDS011;4157;48.074;9.952;2022-11-15T15:22:04;9.85;;;6.00;;
8232;SDS011;4157;48.074;9.952;2022-11-15T15:24:32;8.27;;;5.32;;
8232;SDS011;4157;48.074;9.952;2022-11-15T15:27:00;9.15;;;4.78;;
8232;SDS011;4157;48.074;9.952;2022-11-15T15:29:29;9.35;;;4.43;;
8232;SDS011;4157;48.074;9.952;2022-11-15T15:31:57;6.60;;;3.95;;
8232;SDS011;4157;48.074;9.952;2022-11-15T15:34:24;7.55;;;4.50;;
8232;SDS011;4157;48.074;9.952;2022-11-15T15:37:05;7.30;;;4.18;;
8232;SDS011;4157;48.074;9.952;2022-11-15T15:39:33;9.13;;;4.78;;
8232;SDS011;4157;48.074;9.952;2022-11-15T15:42:01;8.80;;;5.00;;
8232;SDS011;4157;48.074;9.952;2022-11-15T15:44:30;7.03;;;4.10;;
8232;SDS011;4157;48.074;9.952;2022-11-15T15:46:58;6.00;;;4.00;;
8232;SDS011;4157;48.074;9.952;2022-11-15T15:49:26;9.55;;;4.82;;
8232;SDS011;4157;48.074;9.952;2022-11-15T15:51:54;9.07;;;4.50;;
8232;SDS011;4157;48.074;9.952;2022-11-15T15:54:21;8.07;;;5.05;;
8232;SDS011;4157;48.074;9.952;2022-11-15T15:56:49;8.57;;;4.43;;
8232;SDS011;4157;48.074;9.952;2022-11-15T15:59:17;8.88;;;4.45;;
8232;SDS011;4157;48.074;9.952;2022-11-15T16:01:46;7.88;;;4.97;;
8232;SDS011;4157;48.074;9.952;2022-11-15T16:04:14;7.80;;;4.60;;
8232;SDS011;4157;48.074;9.952;2022-11-15T16:06:41;8.40;;;4.93;;
8232;SDS011;4157;48.074;9.952;2022-11-15T16:09:12;8.88;;;6.28;;
8232;SDS011;4157;48.074;9.952;2022-11-15T16:11:40;9.18;;;5.93;;
8232;SDS011;4157;48.074;9.952;2022-11-15T16:14:08;8.23;;;6.15;;
8232;SDS011;4157;48.074;9.952;2022-11-15T16:16:36;9.55;;;5.95;;
8232;SDS011;4157;48.074;9.952;2022-11-15T16:19:05;8.13;;;5.70;;
8232;SDS011;4157;48.074;9.952;2022-11-15T16:21:33;8.25;;;5.25;;
8232;SDS011;4157;48.074;9.952;2022-11-15T16:24:01;8.30;;;6.70;;
8232;SDS011;4157;48.074;9.952;2022-11-15T16:26:30;11.55;;;8.73;;
8232;SDS011;4157;48.074;9.952;2022-11-15T16:28:58;11.15;;;7.25;;
8232;SDS011;4157;48.074;9.952;2022-11-15T16:31:25;8.50;;;5.80;;
8232;SDS011;4157;48.074;9.952;2022-11-15T16:33:53;9.77;;;5.55;;
8232;SDS011;4157;48.074;9.952;2022-11-15T16:36:24;9.45;;;5.45;;
8232;SDS011;4157;48.074;9.952;2022-11-15T16:38:52;8.40;;;5.30;;
8232;SDS011;4157;48.074;9.952;2022-11-15T16:41:19;7.35;;;4.95;;
8232;SDS011;4157;48.074;9.952;2022-11-15T16:43:48;8.40;;;5.57;;
8232;SDS011;4157;48.074;9.952;2022-11-15T16:46:17;7.78;;;5.85;;
8232;SDS011;4157;48.074;9.952;2022-11-15T16:48:45;9.57;;;6.38;;
8232;SDS011;4157;48.074;9.952;2022-11-15T16:51:13;10.50;;;7.35;;
8232;SDS011;4157;48.074;9.952;2022-11-15T16:53:42;9.48;;;6.65;;
8232;SDS011;4157;48.074;9.952;2022-11-15T16:56:16;10.73;;;5.80;;
8232;SDS011;4157;48.074;9.952;2022-11-15T16:58:44;9.57;;;5.93;;
8232;SDS011;4157;48.074;9.952;2022-11-15T17:01:15;9.02;;;6.35;;
8232;SDS011;4157;48.074;9.952;2022-11-15T17:03:43;8.07;;;6.43;;
8232;SDS011;4157;48.074;9.952;2022-11-15T17:06:11;9.13;;;6.32;;